Time;durP1;ratioP1;P1;durP2;ratioP2;P2;SDS_P1;SDS_P2;PMS_P1;PMS_P2;Temp;Humidity;BMP_temperature;BMP_pressure;BME280_temperature;BME280_humidity;BME280_pressure;Samples;Min_cycle;Max_cycle;Signal;HPM_P1;HPM_P2
2022/09/27 00:00:41;;;;;;;10.63;4.10;;;;;;;-142.57;100.00;68379.81;5037841;28;20020;-85
2022/09/27 00:03:10;;;;;;;8.57;4.20;;;;;;;-142.57;100.00;68379.81;5033809;28;20099;-85
2022/09/27 00:05:36;;;;;;;8.93;4.00;;;;;;;-142.57;100.00;68379.81;5070580;28;20032;-85
2022/09/27 00:08:01;;;;;;;13.55;4.45;;;;;;;-142.57;100.00;68379.81;5039241;28;20029;-81
2022/09/27 00:10:27;;;;;;;9.40;3.80;;;;;;;-142.57;100.00;68379.81;5048247;28;20025;-81
2022/09/27 00:12:53;;;;;;;5.05;2.83;;;;;;;-142.57;100.00;68379.81;5028887;28;20029;-82
2022/09/27 00:15:19;;;;;;;6.97;3.38;;;;;;;-142.57;100.00;68379.81;5057718;28;20037;-84
2022/09/27 00:17:45;;;;;;;12.38;3.85;;;;;;;-142.57;100.00;68379.81;5058855;28;20160;-81
2022/09/27 00:20:10;;;;;;;8.70;3.75;;;;;;;-142.57;100.00;68379.81;5055541;28;20096;-77
2022/09/27 00:22:35;;;;;;;11.90;3.90;;;;;;;-142.57;100.00;68379.81;5017605;28;20041;-78
2022/09/27 00:25:04;;;;;;;9.50;3.97;;;;;;;-142.57;100.00;68379.81;5057157;28;20524;-80
2022/09/27 00:27:29;;;;;;;6.05;3.13;;;;;;;-142.57;100.00;68379.81;5032712;28;20017;-83
2022/09/27 00:29:55;;;;;;;9.50;3.88;;;;;;;-142.57;100.00;68379.81;5067385;28;20021;-83
2022/09/27 00:32:20;;;;;;;7.65;4.05;;;;;;;-142.57;100.00;68379.81;5033607;28;20021;-83
2022/09/27 00:34:46;;;;;;;10.50;3.67;;;;;;;-142.57;100.00;68379.81;5048518;28;20127;-81
2022/09/27 00:37:11;;;;;;;13.82;3.85;;;;;;;-142.57;100.00;68379.81;5067634;28;20024;-82
2022/09/27 00:39:38;;;;;;;10.60;3.30;;;;;;;-142.57;100.00;68379.81;5054980;28;20028;-79
2022/09/27 00:42:05;;;;;;;12.43;2.83;;;;;;;-142.57;100.00;68379.81;5035531;28;20497;-80
2022/09/27 00:44:37;;;;;;;14.80;3.80;;;;;;;-142.57;100.00;68379.81;5046889;28;20687;-83
2022/09/27 00:47:23;;;;;;;6.32;2.97;;;;;;;-142.57;100.00;68379.81;5046632;28;20078;-84
2022/09/27 00:49:53;;;;;;;11.85;3.00;;;;;;;-142.57;100.00;68379.81;5040213;28;20079;-81
2022/09/27 00:52:58;;;;;;;4.88;3.08;;;;;;;-142.57;100.00;68379.81;5054637;28;20021;-77
2022/09/27 00:55:44;;;;;;;8.85;3.15;;;;;;;-142.57;100.00;68379.81;5033623;28;20061;-78
2022/09/27 00:58:11;;;;;;;7.05;2.42;;;;;;;-142.57;100.00;68379.81;5033081;28;20029;-81
2022/09/27 01:00:39;;;;;;;11.55;2.38;;;;;;;-142.57;100.00;68379.81;5017009;28;20218;-80
2022/09/27 01:03:04;;;;;;;5.22;2.03;;;;;;;-142.57;100.00;68379.81;5034277;28;20087;-76
2022/09/27 01:05:30;;;;;;;15.27;1.80;;;;;;;-142.57;100.00;68379.81;5052226;28;20021;-83
2022/09/27 01:07:59;;;;;;;4.28;1.80;;;;;;;-142.57;100.00;68379.81;5054267;28;20029;-77
2022/09/27 01:10:28;;;;;;;4.78;1.90;;;;;;;-142.57;100.00;68379.81;5045258;28;20104;-76
2022/09/27 01:13:12;;;;;;;3.40;1.60;;;;;;;-142.57;100.00;68379.81;5064244;28;20104;-79
2022/09/27 01:15:52;;;;;;;5.97;2.33;;;;;;;-142.57;100.00;68379.81;5044191;28;20020;-80
2022/09/27 01:18:35;;;;;;;4.43;1.63;;;;;;;-142.57;100.00;68379.81;5033260;28;20357;-80
2022/09/27 01:21:32;;;;;;;5.13;1.77;;;;;;;-142.57;100.00;68379.81;5052815;28;20021;-78
2022/09/27 01:24:36;;;;;;;5.68;1.92;;;;;;;-142.57;100.00;68379.81;5036307;28;20063;-82
2022/09/27 01:27:45;;;;;;;6.72;2.40;;;;;;;-142.57;100.00;68379.81;5040475;28;20025;-79
2022/09/27 01:30:20;;;;;;;4.90;2.00;;;;;;;-142.57;100.00;68379.81;5053036;28;20410;-80
2022/09/27 01:32:48;;;;;;;4.53;2.10;;;;;;;-142.57;100.00;68379.81;5032955;28;20026;-83
2022/09/27 01:35:20;;;;;;;8.18;2.28;;;;;;;-142.57;100.00;68379.81;5047113;28;20383;-82
2022/09/27 01:37:56;;;;;;;10.35;3.03;;;;;;;-142.57;100.00;68379.81;5032610;28;20025;-75
2022/09/27 01:40:43;;;;;;;7.20;2.80;;;;;;;-142.57;100.00;68379.81;5049077;28;20033;-82
2022/09/27 01:43:14;;;;;;;4.22;2.17;;;;;;;-142.57;100.00;68379.81;5053743;28;20111;-83
2022/09/27 01:45:48;;;;;;;7.30;2.92;;;;;;;-142.57;100.00;68379.81;5035154;28;20033;-78
2022/09/27 01:48:21;;;;;;;7.85;2.30;;;;;;;-142.57;100.00;68379.81;5017526;28;20033;-81
2022/09/27 01:51:05;;;;;;;4.93;2.08;;;;;;;-142.57;100.00;68379.81;5051558;28;20013;-79
2022/09/27 01:53:35;;;;;;;5.03;2.50;;;;;;;-142.57;100.00;68379.81;5046142;28;20440;-80
2022/09/27 01:56:04;;;;;;;4.63;2.20;;;;;;;-142.57;100.00;68379.81;5052371;28;20765;-79
2022/09/27 01:58:36;;;;;;;15.10;2.70;;;;;;;-142.57;100.00;68379.81;5032645;28;20021;-80
2022/09/27 02:01:02;;;;;;;8.10;2.42;;;;;;;-142.57;100.00;68379.81;5062648;28;20032;-80
2022/09/27 02:03:34;;;;;;;7.90;2.38;;;;;;;-142.57;100.00;68379.81;5056178;28;20106;-81
2022/09/27 02:06:09;;;;;;;8.60;2.35;;;;;;;-142.57;100.00;68379.81;5031271;28;20122;-77
2022/09/27 02:08:50;;;;;;;5.68;2.28;;;;;;;-142.57;100.00;68379.81;5052039;28;20025;-77
2022/09/27 02:11:15;;;;;;;11.80;2.88;;;;;;;-142.57;100.00;68379.81;5050384;28;20021;-80
2022/09/27 02:13:44;;;;;;;8.73;2.58;;;;;;;-142.57;100.00;68379.81;5034677;28;20052;-80
2022/09/27 02:16:21;;;;;;;3.80;1.85;;;;;;;-142.57;100.00;68379.81;5084831;28;20552;-81
2022/09/27 02:19:05;;;;;;;7.47;2.58;;;;;;;-142.57;100.00;68379.81;5037604;28;20032;-79
2022/09/27 02:21:38;;;;;;;6.68;2.75;;;;;;;-142.57;100.00;68379.81;5051587;28;20036;-80
2022/09/27 02:24:05;;;;;;;5.23;2.47;;;;;;;-142.57;100.00;68379.81;5033264;28;20025;-76
2022/09/27 02:26:35;;;;;;;4.32;2.10;;;;;;;-142.57;100.00;68379.81;5034144;28;20103;-78
2022/09/27 02:29:15;;;;;;;5.40;2.70;;;;;;;-142.57;100.00;68379.81;5051875;28;20044;-79
2022/09/27 02:31:40;;;;;;;6.80;2.70;;;;;;;-142.57;100.00;68379.81;5071242;28;20024;-80
2022/09/27 02:34:18;;;;;;;9.80;2.88;;;;;;;-142.57;100.00;68379.81;5062883;28;20021;-76
2022/09/27 02:36:43;;;;;;;9.98;2.83;;;;;;;-142.57;100.00;68379.81;5052828;28;20178;-80
2022/09/27 02:39:10;;;;;;;7.85;2.42;;;;;;;-142.57;100.00;68379.81;5029423;28;20025;-79
2022/09/27 02:41:37;;;;;;;6.03;2.55;;;;;;;-142.57;100.00;68379.81;5043292;28;20077;-75
2022/09/27 02:44:04;;;;;;;5.35;2.42;;;;;;;-142.57;100.00;68379.81;5031802;28;20033;-77
2022/09/27 02:47:01;;;;;;;4.40;2.00;;;;;;;-142.57;100.00;68379.81;5034375;28;20017;-77
2022/09/27 02:49:52;;;;;;;7.93;2.53;;;;;;;-142.57;100.00;68379.81;5051111;28;20434;-77
2022/09/27 02:52:28;;;;;;;9.95;2.00;;;;;;;-142.57;100.00;68379.81;5043268;28;20040;-75
2022/09/27 02:55:19;;;;;;;10.10;2.28;;;;;;;-142.57;100.00;68379.81;5052113;28;20031;-76
2022/09/27 02:57:56;;;;;;;7.72;2.20;;;;;;;-142.57;100.00;68379.81;5051066;28;20035;-78
2022/09/27 03:00:30;;;;;;;8.55;2.08;;;;;;;-142.57;100.00;68379.81;5067288;28;20017;-79
2022/09/27 03:03:26;;;;;;;5.97;1.93;;;;;;;-142.57;100.00;68379.81;5034202;28;20433;-79
2022/09/27 03:05:57;;;;;;;5.03;1.88;;;;;;;-142.57;100.00;68379.81;5044630;28;20040;-78
2022/09/27 03:08:23;;;;;;;5.15;1.55;;;;;;;-142.57;100.00;68379.81;5034453;28;20028;-78
2022/09/27 03:10:48;;;;;;;10.02;2.45;;;;;;;-142.57;100.00;68379.81;5032496;28;20021;-78
2022/09/27 03:13:13;;;;;;;5.18;2.35;;;;;;;-142.57;100.00;68379.81;5066348;28;20016;-79
2022/09/27 03:15:39;;;;;;;4.68;1.75;;;;;;;-142.57;100.00;68379.81;5035392;28;20027;-78
2022/09/27 03:18:04;;;;;;;5.60;2.08;;;;;;;-142.57;100.00;68379.81;5054327;28;20532;-84
2022/09/27 03:20:30;;;;;;;5.30;1.73;;;;;;;-142.57;100.00;68379.81;5056394;28;20021;-79
2022/09/27 03:22:55;;;;;;;7.03;2.03;;;;;;;-142.57;100.00;68379.81;5042941;28;20113;-81
2022/09/27 03:25:21;;;;;;;11.40;2.08;;;;;;;-142.57;100.00;68379.81;5037944;28;20025;-83
2022/09/27 03:27:46;;;;;;;5.15;1.50;;;;;;;-142.57;100.00;68379.81;5031883;28;20076;-83
2022/09/27 03:30:13;;;;;;;3.88;1.65;;;;;;;-142.57;100.00;68379.81;5037042;28;20013;-77
2022/09/27 03:32:41;;;;;;;5.63;1.77;;;;;;;-142.57;100.00;68379.81;5043423;28;20017;-80
2022/09/27 03:35:07;;;;;;;4.03;1.58;;;;;;;-142.57;100.00;68379.81;5053522;28;20383;-80
2022/09/27 03:37:32;;;;;;;5.10;1.65;;;;;;;-142.57;100.00;68379.81;5041674;28;20025;-80
2022/09/27 03:39:57;;;;;;;5.07;2.10;;;;;;;-142.57;100.00;68379.81;5035965;28;20025;-78
2022/09/27 03:42:23;;;;;;;5.35;2.25;;;;;;;-142.57;100.00;68379.81;5034676;28;20025;-80
2022/09/27 03:44:50;;;;;;;10.48;2.72;;;;;;;-142.57;100.00;68379.81;5053823;28;20410;-79
2022/09/27 03:47:15;;;;;;;6.32;1.95;;;;;;;-142.57;100.00;68379.81;5064662;28;20028;-80
2022/09/27 03:49:40;;;;;;;5.57;2.75;;;;;;;-142.57;100.00;68379.81;5033656;28;20474;-78
2022/09/27 03:52:06;;;;;;;9.85;2.95;;;;;;;-142.57;100.00;68379.81;5054400;28;20805;-78
2022/09/27 03:54:32;;;;;;;5.95;2.92;;;;;;;-142.57;100.00;68379.81;5047690;28;20105;-81
2022/09/27 03:56:57;;;;;;;8.80;2.58;;;;;;;-142.57;100.00;68379.81;5034468;28;20065;-80
2022/09/27 03:59:23;;;;;;;10.73;2.75;;;;;;;-142.57;100.00;68379.81;5042638;28;20021;-80
2022/09/27 04:01:48;;;;;;;7.07;2.72;;;;;;;-142.57;100.00;68379.81;5046122;28;20490;-78
2022/09/27 04:04:14;;;;;;;7.22;3.35;;;;;;;-142.57;100.00;68379.81;5037885;28;20112;-78
2022/09/27 04:06:39;;;;;;;9.40;3.75;;;;;;;-142.57;100.00;68379.81;5041631;28;20021;-78
2022/09/27 04:09:04;;;;;;;9.50;3.85;;;;;;;-142.57;100.00;68379.81;5048660;28;20155;-76
2022/09/27 04:11:30;;;;;;;6.70;3.97;;;;;;;-142.57;100.00;68379.81;5033765;28;20044;-76
2022/09/27 04:13:55;;;;;;;8.82;3.83;;;;;;;-142.57;100.00;68379.81;5060247;28;20364;-81
2022/09/27 04:16:21;;;;;;;7.93;4.25;;;;;;;-142.57;100.00;68379.81;5038256;28;20063;-80
2022/09/27 04:18:46;;;;;;;6.78;3.55;;;;;;;-142.57;100.00;68379.81;5037262;28;20033;-80
2022/09/27 04:21:12;;;;;;;11.77;3.53;;;;;;;-142.57;100.00;68379.81;5036949;28;20028;-76
2022/09/27 04:23:37;;;;;;;9.07;3.78;;;;;;;-142.57;100.00;68379.81;5032666;28;20026;-75
2022/09/27 04:26:03;;;;;;;10.10;3.50;;;;;;;-142.57;100.00;68379.81;5028541;28;20057;-74
2022/09/27 04:28:28;;;;;;;6.55;3.58;;;;;;;-142.57;100.00;68379.81;5053720;28;20025;-75
2022/09/27 04:30:55;;;;;;;7.32;2.97;;;;;;;-142.57;100.00;68379.81;5057760;28;20024;-76
2022/09/27 04:33:20;;;;;;;5.20;3.00;;;;;;;-142.57;100.00;68379.81;5067254;28;20048;-75
2022/09/27 04:38:29;;;;;;;10.65;3.15;;;;;;;-142.57;100.00;68379.81;5071935;28;20556;-76
2022/09/27 04:40:55;;;;;;;6.43;2.42;;;;;;;-142.57;100.00;68379.81;5063139;28;20020;-74
2022/09/27 04:43:20;;;;;;;5.30;1.92;;;;;;;-142.57;100.00;68379.81;5055979;28;20024;-75
2022/09/27 04:45:45;;;;;;;4.07;1.67;;;;;;;-142.57;100.00;68379.81;5052029;28;20063;-76
2022/09/27 04:48:11;;;;;;;11.43;2.00;;;;;;;-142.57;100.00;68379.81;5072386;28;20028;-76
2022/09/27 04:50:36;;;;;;;5.88;1.70;;;;;;;-142.57;100.00;68379.81;5066499;28;20040;-73
2022/09/27 04:53:02;;;;;;;5.40;1.75;;;;;;;-142.57;100.00;68379.81;5048309;28;20104;-75
2022/09/27 04:55:28;;;;;;;13.77;1.63;;;;;;;-142.57;100.00;68379.81;5050939;28;20039;-76
2022/09/27 04:57:53;;;;;;;4.18;1.40;;;;;;;-142.57;100.00;68379.81;5060035;28;20021;-76
2022/09/27 05:00:19;;;;;;;6.80;1.75;;;;;;;-142.57;100.00;68379.81;5042349;28;20040;-75
2022/09/27 05:02:47;;;;;;;4.50;1.77;;;;;;;-142.57;100.00;68379.81;5056540;28;20012;-73
2022/09/27 05:05:12;;;;;;;3.95;1.48;;;;;;;-142.57;100.00;68379.81;5054562;28;20025;-77
2022/09/27 05:07:38;;;;;;;6.22;2.00;;;;;;;-142.57;100.00;68379.81;5052897;28;20021;-76
2022/09/27 05:10:05;;;;;;;3.53;1.40;;;;;;;-142.57;100.00;68379.81;5046137;28;20467;-77
2022/09/27 05:12:30;;;;;;;5.97;1.67;;;;;;;-142.57;100.00;68379.81;5069301;28;20017;-79
2022/09/27 05:14:56;;;;;;;4.78;1.00;;;;;;;-142.57;100.00;68379.81;5035575;28;20384;-76
2022/09/27 05:17:22;;;;;;;3.50;1.45;;;;;;;-142.57;100.00;68379.81;5036226;28;20029;-75
2022/09/27 05:19:48;;;;;;;7.07;1.35;;;;;;;-142.57;100.00;68379.81;5055268;28;20028;-76
2022/09/27 05:22:14;;;;;;;3.42;1.65;;;;;;;-142.57;100.00;68379.81;5065805;28;20024;-75
2022/09/27 05:24:39;;;;;;;5.80;2.15;;;;;;;-142.57;100.00;68379.81;5030202;28;20029;-75
2022/09/27 05:27:07;;;;;;;7.00;1.48;;;;;;;-142.57;100.00;68379.81;5069850;28;20029;-76
2022/09/27 05:29:34;;;;;;;4.70;1.70;;;;;;;-142.57;100.00;68379.81;5046385;28;20036;-78
2022/09/27 05:32:00;;;;;;;3.20;1.02;;;;;;;-142.57;100.00;68379.81;5032644;28;20078;-75
2022/09/27 05:34:25;;;;;;;5.88;1.90;;;;;;;-142.57;100.00;68379.81;5049838;28;20476;-75
2022/09/27 05:36:51;;;;;;;4.07;1.50;;;;;;;-142.57;100.00;68379.81;5031543;28;20040;-75
2022/09/27 05:39:16;;;;;;;7.72;1.50;;;;;;;-142.57;100.00;68379.81;5049731;28;20441;-73
2022/09/27 05:41:42;;;;;;;9.40;1.88;;;;;;;-142.57;100.00;68379.81;5047746;28;20033;-74
2022/09/27 05:44:08;;;;;;;3.55;2.03;;;;;;;-142.57;100.00;68379.81;5045309;28;20024;-74
2022/09/27 05:46:33;;;;;;;10.63;1.48;;;;;;;-142.57;100.00;68379.81;5040201;28;20024;-76
2022/09/27 05:48:58;;;;;;;4.97;1.15;;;;;;;-142.57;100.00;68379.81;5050229;28;20083;-75
2022/09/27 05:51:24;;;;;;;4.28;1.30;;;;;;;-142.57;100.00;68379.81;5005651;28;20021;-74
2022/09/27 05:53:49;;;;;;;2.25;0.80;;;;;;;-142.57;100.00;68379.81;5061605;28;20543;-75
2022/09/27 05:56:16;;;;;;;10.75;1.55;;;;;;;-142.57;100.00;68379.81;5025325;28;20033;-76
2022/09/27 05:58:41;;;;;;;3.90;1.30;;;;;;;-142.57;100.00;68379.81;5025303;28;20031;-76
2022/09/27 06:01:07;;;;;;;5.43;1.48;;;;;;;-142.57;100.00;68379.81;5023355;28;20033;-76
2022/09/27 06:03:33;;;;;;;8.57;1.40;;;;;;;-142.57;100.00;68379.81;5027995;28;20029;-76
2022/09/27 06:06:04;;;;;;;5.03;1.55;;;;;;;-142.57;100.00;68379.81;5046760;28;20032;-76
2022/09/27 06:08:33;;;;;;;7.07;1.40;;;;;;;-142.57;100.00;68379.81;5055473;28;20546;-77
2022/09/27 06:11:11;;;;;;;4.57;1.27;;;;;;;-142.57;100.00;68379.81;5032491;28;20036;-76
2022/09/27 06:13:37;;;;;;;8.18;1.33;;;;;;;-142.57;100.00;68379.81;5035537;28;20031;-75
2022/09/27 06:16:03;;;;;;;6.45;1.02;;;;;;;-142.57;100.00;68379.81;5043000;28;20032;-75
2022/09/27 06:18:28;;;;;;;3.45;1.20;;;;;;;-142.57;100.00;68379.81;5023025;28;20025;-76
2022/09/27 06:20:54;;;;;;;5.30;1.73;;;;;;;-142.57;100.00;68379.81;5052758;28;20025;-77
2022/09/27 06:23:21;;;;;;;3.03;0.93;;;;;;;-142.57;100.00;68379.81;5018094;28;20056;-76
2022/09/27 06:25:48;;;;;;;3.42;1.50;;;;;;;-142.57;100.00;68379.81;5032191;28;20049;-75
2022/09/27 06:28:14;;;;;;;4.63;1.42;;;;;;;-142.57;100.00;68379.81;5032686;28;20025;-76
2022/09/27 06:30:42;;;;;;;5.03;2.15;;;;;;;-142.57;100.00;68379.81;5024557;28;20025;-77
2022/09/27 06:33:13;;;;;;;7.63;2.22;;;;;;;-142.57;100.00;68379.81;5071991;28;20029;-77
2022/09/27 06:35:39;;;;;;;6.13;2.38;;;;;;;-142.57;100.00;68379.81;5029179;28;20040;-76
2022/09/27 06:38:07;;;;;;;5.97;2.20;;;;;;;-142.57;100.00;68379.81;5047529;28;20453;-76
2022/09/27 06:40:33;;;;;;;4.70;2.65;;;;;;;-142.57;100.00;68379.81;5036025;28;20395;-76
2022/09/27 06:43:08;;;;;;;6.13;2.53;;;;;;;-142.57;100.00;68379.81;5027003;28;20026;-75
2022/09/27 06:45:34;;;;;;;3.47;1.88;;;;;;;-142.57;100.00;68379.81;5039186;28;20036;-77
2022/09/27 06:48:01;;;;;;;4.15;2.10;;;;;;;-142.57;100.00;68379.81;5031625;28;20086;-77
2022/09/27 06:50:31;;;;;;;6.10;2.55;;;;;;;-142.57;100.00;68379.81;5025579;28;20025;-76
2022/09/27 06:52:57;;;;;;;4.82;2.42;;;;;;;-142.57;100.00;68379.81;5041597;28;20024;-73
2022/09/27 06:55:22;;;;;;;6.22;2.70;;;;;;;-142.57;100.00;68379.81;5037718;28;20036;-76
2022/09/27 07:00:32;;;;;;;4.13;1.90;;;;;;;-142.57;100.00;68379.81;5044694;28;20122;-74
2022/09/27 07:03:00;;;;;;;9.75;2.70;;;;;;;-142.57;100.00;68379.81;5063284;28;20498;-75
2022/09/27 07:05:28;;;;;;;10.02;2.95;;;;;;;-142.57;100.00;68379.81;5048120;28;20078;-76
2022/09/27 07:07:56;;;;;;;6.15;2.80;;;;;;;-142.57;100.00;68379.81;5035549;28;20029;-75
2022/09/27 07:10:26;;;;;;;5.65;2.65;;;;;;;-142.57;100.00;68379.81;5028469;28;20021;-76
2022/09/27 07:12:51;;;;;;;5.10;2.58;;;;;;;-142.57;100.00;68379.81;5035536;28;20028;-76
2022/09/27 07:15:20;;;;;;;5.65;3.08;;;;;;;-142.57;100.00;68379.81;5042569;28;20037;-76
2022/09/27 07:17:45;;;;;;;8.52;3.20;;;;;;;-142.57;100.00;68379.81;5034930;28;20028;-75
2022/09/27 07:20:11;;;;;;;5.10;2.75;;;;;;;-142.57;100.00;68379.81;5010154;28;20048;-75
2022/09/27 07:22:41;;;;;;;6.03;2.63;;;;;;;-142.57;100.00;68379.81;5009724;28;20101;-77
2022/09/27 07:25:07;;;;;;;7.88;2.95;;;;;;;-142.57;100.00;68379.81;4990365;28;20087;-74
2022/09/27 07:27:33;;;;;;;6.72;2.78;;;;;;;-142.57;100.00;68379.81;5030302;28;20028;-72
2022/09/27 07:29:59;;;;;;;9.50;3.80;;;;;;;-142.57;100.00;68379.81;5047957;28;20434;-74
2022/09/27 07:32:25;;;;;;;6.15;4.05;;;;;;;-142.57;100.00;68379.81;5040893;28;20031;-77
2022/09/27 07:34:50;;;;;;;8.93;4.03;;;;;;;-142.57;100.00;68379.81;5049082;28;20036;-77
2022/09/27 07:37:16;;;;;;;6.38;4.00;;;;;;;-142.57;100.00;68379.81;5036945;28;20364;-75
2022/09/27 07:39:41;;;;;;;10.05;4.55;;;;;;;-142.57;100.00;68379.81;5028758;28;20026;-75
2022/09/27 07:42:07;;;;;;;9.80;4.65;;;;;;;-142.57;100.00;68379.81;5045099;28;20032;-76
2022/09/27 07:44:32;;;;;;;13.15;5.35;;;;;;;-142.57;100.00;68379.81;5051193;28;20057;-75
2022/09/27 07:46:57;;;;;;;13.55;4.30;;;;;;;-142.57;100.00;68379.81;5048839;28;20025;-76
2022/09/27 07:49:23;;;;;;;7.50;4.47;;;;;;;-142.57;100.00;68379.81;5030526;28;20063;-73
2022/09/27 07:51:48;;;;;;;6.43;4.00;;;;;;;-142.57;100.00;68379.81;5049728;28;20357;-76
2022/09/27 07:54:14;;;;;;;7.18;4.03;;;;;;;-142.57;100.00;68379.81;5028717;28;20025;-74
2022/09/27 07:56:39;;;;;;;6.30;3.58;;;;;;;-142.57;100.00;68379.81;5046853;28;20054;-76
2022/09/27 07:59:05;;;;;;;5.82;4.35;;;;;;;-142.57;100.00;68379.81;5041382;28;20025;-74
2022/09/27 08:01:30;;;;;;;14.07;4.75;;;;;;;-142.57;100.00;68379.81;5038119;28;20033;-74
2022/09/27 08:03:57;;;;;;;11.57;4.68;;;;;;;-142.57;100.00;68379.81;5055225;28;20020;-74
2022/09/27 08:06:23;;;;;;;6.80;4.43;;;;;;;-142.57;100.00;68379.81;5061568;28;20021;-74
2022/09/27 08:08:48;;;;;;;7.97;4.47;;;;;;;-142.57;100.00;68379.81;5065086;28;20081;-74
2022/09/27 08:11:15;;;;;;;7.07;4.10;;;;;;;-142.57;100.00;68379.81;5048939;28;20101;-74
2022/09/27 08:13:41;;;;;;;6.00;4.13;;;;;;;-142.57;100.00;68379.81;5028235;28;20036;-75
2022/09/27 08:16:07;;;;;;;5.72;3.90;;;;;;;-142.57;100.00;68379.81;5050501;28;20029;-73
2022/09/27 08:18:32;;;;;;;7.50;4.55;;;;;;;-142.57;100.00;68379.81;5047222;28;20037;-75
2022/09/27 08:20:58;;;;;;;6.72;4.07;;;;;;;-142.57;100.00;68379.81;5050151;28;20039;-74
2022/09/27 08:23:24;;;;;;;8.93;4.75;;;;;;;-142.57;100.00;68379.81;5025407;28;20017;-73
2022/09/27 08:25:53;;;;;;;5.30;3.80;;;;;;;-142.57;100.00;68379.81;5041971;28;20380;-75
2022/09/27 08:28:18;;;;;;;14.48;3.80;;;;;;;-142.57;100.00;68379.81;5036947;28;20032;-74
2022/09/27 08:30:44;;;;;;;12.15;3.95;;;;;;;-142.57;100.00;68379.81;5060823;28;20024;-75
2022/09/27 08:33:09;;;;;;;5.65;3.17;;;;;;;-142.57;100.00;68379.81;5050263;28;20036;-74
2022/09/27 08:35:35;;;;;;;9.30;3.72;;;;;;;-142.57;100.00;68379.81;5050435;28;20056;-74
2022/09/27 08:38:01;;;;;;;5.22;3.00;;;;;;;-142.57;100.00;68379.81;5049148;28;20033;-73
2022/09/27 08:40:54;;;;;;;6.82;3.88;;;;;;;-142.57;100.00;68379.81;5062640;28;20036;-74
2022/09/27 08:43:33;;;;;;;5.25;3.42;;;;;;;-142.57;100.00;68379.81;5083425;28;20055;-74
2022/09/27 08:46:20;;;;;;;7.22;3.67;;;;;;;-142.57;100.00;68379.81;5049921;28;20035;-75
2022/09/27 08:48:49;;;;;;;7.22;4.07;;;;;;;-142.57;100.00;68379.81;5041266;28;20127;-74
2022/09/27 08:51:15;;;;;;;6.53;3.78;;;;;;;-142.57;100.00;68379.81;5039384;28;20466;-74
2022/09/27 08:54:01;;;;;;;6.95;3.88;;;;;;;-142.57;100.00;68379.81;5052108;28;20114;-74
2022/09/27 08:56:27;;;;;;;6.18;4.13;;;;;;;-142.57;100.00;68379.81;5047111;28;20419;-74
2022/09/27 08:58:59;;;;;;;8.48;3.92;;;;;;;-142.57;100.00;68379.81;5047435;28;20021;-74
2022/09/27 09:01:25;;;;;;;7.38;3.65;;;;;;;-142.57;100.00;68379.81;5047540;28;20021;-77
2022/09/27 09:03:56;;;;;;;7.28;3.63;;;;;;;-142.57;100.00;68379.81;5031337;28;20035;-74
2022/09/27 09:06:34;;;;;;;8.80;4.05;;;;;;;-142.57;100.00;68379.81;5037512;28;20028;-75
2022/09/27 09:09:12;;;;;;;6.10;3.75;;;;;;;-142.57;100.00;68379.81;5049443;28;20383;-73
2022/09/27 09:14:45;;;;;;;7.53;4.25;;;;;;;-142.57;100.00;68379.81;5041932;28;20089;-75
2022/09/27 09:17:20;;;;;;;8.25;4.45;;;;;;;-142.57;100.00;68379.81;5042686;28;20034;-74
2022/09/27 09:20:04;;;;;;;7.03;4.28;;;;;;;-142.57;100.00;68379.81;5046491;28;20021;-73
2022/09/27 09:23:34;;;;;;;5.70;3.70;;;;;;;-142.57;100.00;68379.81;5049201;28;20068;-75
2022/09/27 09:26:21;;;;;;;8.90;4.03;;;;;;;-142.57;100.00;68379.81;5026687;28;20072;-74
2022/09/27 09:28:58;;;;;;;6.20;4.72;;;;;;;-142.57;100.00;68379.81;5006911;28;20123;-72
2022/09/27 09:31:30;;;;;;;6.85;4.35;;;;;;;-142.57;100.00;68379.81;5048752;28;20546;-72
2022/09/27 09:34:05;;;;;;;7.63;4.53;;;;;;;-142.57;100.00;68379.81;5049822;28;20028;-73
2022/09/27 09:36:32;;;;;;;10.23;4.22;;;;;;;-142.57;100.00;68379.81;5081280;28;20199;-72
2022/09/27 09:39:10;;;;;;;9.57;4.55;;;;;;;-142.57;100.00;68379.81;5051216;28;20021;-73
2022/09/27 09:41:41;;;;;;;10.18;4.63;;;;;;;-142.57;100.00;68379.81;5049494;28;20067;-73
2022/09/27 09:44:26;;;;;;;6.85;4.93;;;;;;;-142.57;100.00;68379.81;5049828;28;20059;-74
2022/09/27 09:46:52;;;;;;;;;;;;;;;-142.57;100.00;68379.81;5071655;28;20025;-73
2022/09/27 09:49:38;;;;;;;12.15;5.25;;;;;;;-142.57;100.00;68379.81;5083408;28;19916;-74
2022/09/27 09:52:09;;;;;;;9.55;4.20;;;;;;;-142.57;100.00;68379.81;5038675;28;20021;-73
2022/09/27 09:54:55;;;;;;;7.53;4.22;;;;;;;-142.57;100.00;68379.81;5042741;28;20132;-73
2022/09/27 09:57:38;;;;;;;5.75;3.67;;;;;;;-142.57;100.00;68379.81;5042978;28;20063;-74
2022/09/27 10:00:13;;;;;;;7.28;3.78;;;;;;;-142.57;100.00;68379.81;5030364;28;20112;-73
2022/09/27 10:02:41;;;;;;;7.93;5.07;;;;;;;-142.57;100.00;68379.81;5058437;28;20026;-72
2022/09/27 10:05:13;;;;;;;5.90;3.80;;;;;;;-142.57;100.00;68379.81;5055399;28;20031;-73
2022/09/27 10:07:38;;;;;;;8.68;4.28;;;;;;;-142.57;100.00;68379.81;5047090;28;20020;-73
2022/09/27 10:10:06;;;;;;;14.50;3.67;;;;;;;-142.57;100.00;68379.81;5042629;28;20067;-73
2022/09/27 10:12:32;;;;;;;5.78;3.58;;;;;;;-142.57;100.00;68379.81;5059450;28;20051;-72
2022/09/27 10:15:00;;;;;;;5.72;3.42;;;;;;;-142.57;100.00;68379.81;5052732;28;20395;-74
2022/09/27 10:17:34;;;;;;;6.10;3.28;;;;;;;-142.57;100.00;68379.81;5034318;28;20092;-75
2022/09/27 10:20:01;;;;;;;6.45;3.55;;;;;;;-142.57;100.00;68379.81;5041692;28;20112;-74
2022/09/27 10:22:42;;;;;;;5.88;2.97;;;;;;;-142.57;100.00;68379.81;5048925;28;20056;-77
2022/09/27 10:25:08;;;;;;;5.85;3.40;;;;;;;-142.57;100.00;68379.81;5056103;28;20033;-76
2022/09/27 10:27:43;;;;;;;7.65;3.35;;;;;;;-142.57;100.00;68379.81;5045287;28;20025;-76
2022/09/27 10:30:26;;;;;;;;;;;;;;;-142.57;100.00;68379.81;5076738;28;20451;-75
2022/09/27 10:32:55;;;;;;;7.15;3.22;;;;;;;-142.57;100.00;68379.81;5083197;28;19935;-75
2022/09/27 10:35:35;;;;;;;6.38;3.50;;;;;;;-142.57;100.00;68379.81;5021400;28;20117;-76
2022/09/27 10:38:30;;;;;;;8.15;3.33;;;;;;;-142.57;100.00;68379.81;5045766;28;20471;-75
2022/09/27 10:40:58;;;;;;;7.97;3.80;;;;;;;-142.57;100.00;68379.81;5048220;28;20104;-75
2022/09/27 10:43:34;;;;;;;7.40;4.70;;;;;;;-142.57;100.00;68379.81;5039183;28;20029;-76
2022/09/27 10:46:24;;;;;;;7.10;4.35;;;;;;;-142.57;100.00;68379.81;5048769;28;20056;-74
2022/09/27 10:49:20;;;;;;;3.85;3.00;;;;;;;-142.57;100.00;68379.81;5046456;28;20476;-75
2022/09/27 10:51:49;;;;;;;6.57;3.38;;;;;;;-142.57;100.00;68379.81;5018751;28;20017;-75
2022/09/27 10:54:38;;;;;;;5.47;3.70;;;;;;;-142.57;100.00;68379.81;5032150;28;20025;-76
2022/09/27 10:57:04;;;;;;;4.93;3.15;;;;;;;-142.57;100.00;68379.81;5062252;28;20033;-72
2022/09/27 10:59:35;;;;;;;6.60;3.22;;;;;;;-142.57;100.00;68379.81;5075757;28;20027;-74
2022/09/27 11:02:01;;;;;;;5.72;2.80;;;;;;;-142.57;100.00;68379.81;5048182;28;20119;-74
2022/09/27 11:04:34;;;;;;;5.43;2.80;;;;;;;-142.57;100.00;68379.81;5052839;28;20536;-75
2022/09/27 11:07:19;;;;;;;3.58;1.90;;;;;;;-142.57;100.00;68379.81;5035533;28;20771;-74
2022/09/27 11:09:53;;;;;;;3.65;1.80;;;;;;;-142.57;100.00;68379.81;5028479;28;20025;-74
2022/09/27 11:12:21;;;;;;;4.93;2.40;;;;;;;-142.57;100.00;68379.81;5047798;28;20025;-73
2022/09/27 11:15:15;;;;;;;3.38;1.70;;;;;;;-142.57;100.00;68379.81;5048296;28;20103;-73
2022/09/27 11:17:53;;;;;;;6.68;2.30;;;;;;;-142.57;100.00;68379.81;5021106;28;20064;-74
2022/09/27 11:20:29;;;;;;;6.85;1.90;;;;;;;-142.57;100.00;68379.81;5041710;28;20088;-73
2022/09/27 11:23:13;;;;;;;3.33;1.77;;;;;;;-142.57;100.00;68379.81;5028475;28;20474;-76
2022/09/27 11:25:58;;;;;;;3.35;1.40;;;;;;;-142.57;100.00;68379.81;5049755;28;20123;-76
2022/09/27 11:28:38;;;;;;;4.00;1.65;;;;;;;-142.57;100.00;68379.81;5047512;28;20028;-74
2022/09/27 11:31:12;;;;;;;2.50;1.00;;;;;;;-142.57;100.00;68379.81;5047922;28;20021;-77
2022/09/27 11:33:44;;;;;;;5.47;1.25;;;;;;;-142.57;100.00;68379.81;5051917;28;20037;-77